sensor_id;sensor_type;location;lat;lon;timestamp;pressure;altitude;pressure_sealevel;temperature;humidity
46464;BME280;32161;48.148;-1.554;2022-12-18T00:01:25;101517.53;;;-1.26;86.32
46464;BME280;32161;48.148;-1.554;2022-12-18T00:03:55;101508.50;;;-1.35;86.29
46464;BME280;32161;48.148;-1.554;2022-12-18T00:06:24;101514.13;;;-1.38;86.76
46464;BME280;32161;48.148;-1.554;2022-12-18T00:08:54;101523.41;;;-1.32;86.34
46464;BME280;32161;48.148;-1.554;2022-12-18T00:11:25;101524.25;;;-1.32;86.21
46464;BME280;32161;48.148;-1.554;2022-12-18T00:13:56;101517.50;;;-1.36;86.11
46464;BME280;32161;48.148;-1.554;2022-12-18T00:16:25;101512.56;;;-1.40;86.40
46464;BME280;32161;48.148;-1.554;2022-12-18T00:18:55;101509.06;;;-1.41;86.77
46464;BME280;32161;48.148;-1.554;2022-12-18T00:21:23;101514.25;;;-1.39;86.68
46464;BME280;32161;48.148;-1.554;2022-12-18T00:23:51;101508.34;;;-1.43;86.24
46464;BME280;32161;48.148;-1.554;2022-12-18T00:26:23;101503.72;;;-1.41;86.32
46464;BME280;32161;48.148;-1.554;2022-12-18T00:28:54;101510.88;;;-1.41;86.58
46464;BME280;32161;48.148;-1.554;2022-12-18T00:31:24;101506.50;;;-1.42;86.67
46464;BME280;32161;48.148;-1.554;2022-12-18T00:33:54;101500.34;;;-1.43;86.40
46464;BME280;32161;48.148;-1.554;2022-12-18T00:36:25;101495.72;;;-1.41;86.09
46464;BME280;32161;48.148;-1.554;2022-12-18T00:38:54;101503.72;;;-1.41;86.20
46464;BME280;32161;48.148;-1.554;2022-12-18T00:41:23;101506.25;;;-1.39;85.97
46464;BME280;32161;48.148;-1.554;2022-12-18T00:44:21;101495.06;;;-1.33;85.94
46464;BME280;32161;48.148;-1.554;2022-12-18T00:46:49;101494.47;;;-1.37;86.06
46464;BME280;32161;48.148;-1.554;2022-12-18T00:49:18;101485.63;;;-1.37;86.36
46464;BME280;32161;48.148;-1.554;2022-12-18T00:51:46;101495.16;;;-1.35;86.29
46464;BME280;32161;48.148;-1.554;2022-12-18T00:54:13;101493.50;;;-1.36;86.10
46464;BME280;32161;48.148;-1.554;2022-12-18T00:56:41;101491.97;;;-1.38;86.09
46464;BME280;32161;48.148;-1.554;2022-12-18T00:59:09;101490.50;;;-1.42;86.77
46464;BME280;32161;48.148;-1.554;2022-12-18T01:01:38;101482.13;;;-1.38;86.81
46464;BME280;32161;48.148;-1.554;2022-12-18T01:04:06;101482.13;;;-1.38;86.66
46464;BME280;32161;48.148;-1.554;2022-12-18T01:06:33;101479.59;;;-1.39;86.85
46464;BME280;32161;48.148;-1.554;2022-12-18T01:09:01;101473.81;;;-1.44;87.03
46464;BME280;32161;48.148;-1.554;2022-12-18T01:11:29;101474.50;;;-1.42;86.65
46464;BME280;32161;48.148;-1.554;2022-12-18T01:13:57;101479.16;;;-1.44;87.01
46464;BME280;32161;48.148;-1.554;2022-12-18T01:16:24;101484.22;;;-1.41;86.72
46464;BME280;32161;48.148;-1.554;2022-12-18T01:18:54;101469.31;;;-1.44;86.91
46464;BME280;32161;48.148;-1.554;2022-12-18T01:21:22;101464.84;;;-1.43;87.05
46464;BME280;32161;48.148;-1.554;2022-12-18T01:23:52;101449.41;;;-1.40;86.43
46464;BME280;32161;48.148;-1.554;2022-12-18T01:26:21;101456.97;;;-1.45;86.43
46464;BME280;32161;48.148;-1.554;2022-12-18T01:28:49;101449.16;;;-1.37;86.92
46464;BME280;32161;48.148;-1.554;2022-12-18T01:31:21;101451.81;;;-1.37;86.58
46464;BME280;32161;48.148;-1.554;2022-12-18T01:33:49;101445.63;;;-1.37;86.26
46464;BME280;32161;48.148;-1.554;2022-12-18T01:36:21;101454.47;;;-1.37;86.66
46464;BME280;32161;48.148;-1.554;2022-12-18T01:38:50;101457.28;;;-1.38;86.51
46464;BME280;32161;48.148;-1.554;2022-12-18T01:41:22;101460.50;;;-1.35;86.55
46464;BME280;32161;48.148;-1.554;2022-12-18T01:43:53;101462.91;;;-1.32;86.73
46464;BME280;32161;48.148;-1.554;2022-12-18T01:46:26;101473.56;;;-1.32;86.26
46464;BME280;32161;48.148;-1.554;2022-12-18T01:48:59;101475.00;;;-1.28;86.10
46464;BME280;32161;48.148;-1.554;2022-12-18T01:51:30;101479.91;;;-1.33;86.33
46464;BME280;32161;48.148;-1.554;2022-12-18T01:53:58;101487.56;;;-1.49;87.05
46464;BME280;32161;48.148;-1.554;2022-12-18T01:56:26;101489.25;;;-1.48;87.16
46464;BME280;32161;48.148;-1.554;2022-12-18T01:58:58;101480.84;;;-1.43;87.43
46464;BME280;32161;48.148;-1.554;2022-12-18T02:01:28;101477.75;;;-1.39;87.42
46464;BME280;32161;48.148;-1.554;2022-12-18T02:04:20;101471.31;;;-1.36;87.12
46464;BME280;32161;48.148;-1.554;2022-12-18T02:06:54;101466.00;;;-1.36;86.90
46464;BME280;32161;48.148;-1.554;2022-12-18T02:09:33;101471.91;;;-1.33;86.53
46464;BME280;32161;48.148;-1.554;2022-12-18T02:12:10;101462.66;;;-1.29;86.75
46464;BME280;32161;48.148;-1.554;2022-12-18T02:14:46;101472.31;;;-1.28;86.31
46464;BME280;32161;48.148;-1.554;2022-12-18T02:17:19;101471.91;;;-1.23;86.14
46464;BME280;32161;48.148;-1.554;2022-12-18T02:19:57;101473.88;;;-1.25;86.38
46464;BME280;32161;48.148;-1.554;2022-12-18T02:22:39;101473.88;;;-1.25;86.85
46464;BME280;32161;48.148;-1.554;2022-12-18T02:25:23;101474.00;;;-1.36;86.96
46464;BME280;32161;48.148;-1.554;2022-12-18T02:27:57;101470.50;;;-1.27;86.77
46464;BME280;32161;48.148;-1.554;2022-12-18T02:30:27;101475.88;;;-1.17;85.97
46464;BME280;32161;48.148;-1.554;2022-12-18T02:32:58;101475.88;;;-1.17;86.41
46464;BME280;32161;48.148;-1.554;2022-12-18T02:35:29;101470.81;;;-1.20;85.56
46464;BME280;32161;48.148;-1.554;2022-12-18T02:37:58;101461.03;;;-1.10;86.38
46464;BME280;32161;48.148;-1.554;2022-12-18T02:40:27;101450.88;;;-1.26;86.26
46464;BME280;32161;48.148;-1.554;2022-12-18T02:43:06;101458.03;;;-1.27;86.78
46464;BME280;32161;48.148;-1.554;2022-12-18T02:45:34;101453.06;;;-1.31;86.80
46464;BME280;32161;48.148;-1.554;2022-12-18T02:48:02;101448.91;;;-1.24;86.83
46464;BME280;32161;48.148;-1.554;2022-12-18T02:50:34;101434.03;;;-1.27;86.97
46464;BME280;32161;48.148;-1.554;2022-12-18T02:53:10;101439.06;;;-1.24;86.24
46464;BME280;32161;48.148;-1.554;2022-12-18T02:55:54;101435.72;;;-1.16;86.44
46464;BME280;32161;48.148;-1.554;2022-12-18T02:58:34;101444.19;;;-1.11;86.38
46464;BME280;32161;48.148;-1.554;2022-12-18T03:01:10;101448.53;;;-1.10;85.96
46464;BME280;32161;48.148;-1.554;2022-12-18T03:03:43;101426.56;;;-1.23;86.41
46464;BME280;32161;48.148;-1.554;2022-12-18T03:06:18;101421.81;;;-1.19;86.53
46464;BME280;32161;48.148;-1.554;2022-12-18T03:08:53;101420.69;;;-1.17;86.34
46464;BME280;32161;48.148;-1.554;2022-12-18T03:11:23;101421.38;;;-1.25;86.40
46464;BME280;32161;48.148;-1.554;2022-12-18T03:14:08;101421.94;;;-1.31;87.06
46464;BME280;32161;48.148;-1.554;2022-12-18T03:16:37;101419.56;;;-1.24;86.61
46464;BME280;32161;48.148;-1.554;2022-12-18T03:19:11;101409.88;;;-1.15;86.50
46464;BME280;32161;48.148;-1.554;2022-12-18T03:21:45;101416.31;;;-1.28;86.98
46464;BME280;32161;48.148;-1.554;2022-12-18T03:24:12;101408.31;;;-1.28;86.69
46464;BME280;32161;48.148;-1.554;2022-12-18T03:26:44;101424.19;;;-1.26;87.52
46464;BME280;32161;48.148;-1.554;2022-12-18T03:29:20;101428.41;;;-1.24;86.67
46464;BME280;32161;48.148;-1.554;2022-12-18T03:31:54;101432.78;;;-1.23;86.84
46464;BME280;32161;48.148;-1.554;2022-12-18T03:34:26;101439.94;;;-1.13;86.91
46464;BME280;32161;48.148;-1.554;2022-12-18T03:36:56;101448.38;;;-1.18;87.08
46464;BME280;32161;48.148;-1.554;2022-12-18T03:39:23;101441.88;;;-1.15;86.70
46464;BME280;32161;48.148;-1.554;2022-12-18T03:41:55;101439.53;;;-1.18;87.44
46464;BME280;32161;48.148;-1.554;2022-12-18T03:44:32;101436.56;;;-1.15;87.28
46464;BME280;32161;48.148;-1.554;2022-12-18T03:47:08;101436.00;;;-1.19;87.32
46464;BME280;32161;48.148;-1.554;2022-12-18T03:49:46;101447.69;;;-1.10;87.37
46464;BME280;32161;48.148;-1.554;2022-12-18T03:52:19;101442.34;;;-1.10;87.21
46464;BME280;32161;48.148;-1.554;2022-12-18T03:54:48;101438.28;;;-1.05;87.02
46464;BME280;32161;48.148;-1.554;2022-12-18T03:57:20;101439.09;;;-1.04;87.14
46464;BME280;32161;48.148;-1.554;2022-12-18T03:59:56;101435.75;;;-1.06;87.65
46464;BME280;32161;48.148;-1.554;2022-12-18T04:02:24;101425.50;;;-1.01;87.57
46464;BME280;32161;48.148;-1.554;2022-12-18T04:04:54;101435.06;;;-0.99;87.28
46464;BME280;32161;48.148;-1.554;2022-12-18T04:07:24;101439.28;;;-0.96;87.29
46464;BME280;32161;48.148;-1.554;2022-12-18T04:09:54;101440.69;;;-0.92;87.29
46464;BME280;32161;48.148;-1.554;2022-12-18T04:12:25;101447.16;;;-0.94;86.99
46464;BME280;32161;48.148;-1.554;2022-12-18T04:14:54;101445.31;;;-0.94;87.65
46464;BME280;32161;48.148;-1.554;2022-12-18T04:17:22;101451.94;;;-0.88;87.34
46464;BME280;32161;48.148;-1.554;2022-12-18T04:19:50;101441.97;;;-0.86;87.78
46464;BME280;32161;48.148;-1.554;2022-12-18T04:22:17;101438.28;;;-0.85;87.32
46464;BME280;32161;48.148;-1.554;2022-12-18T04:24:45;101439.13;;;-0.85;87.19
46464;BME280;32161;48.148;-1.554;2022-12-18T04:27:13;101445.59;;;-0.78;87.23
46464;BME280;32161;48.148;-1.554;2022-12-18T04:29:41;101449.28;;;-0.79;86.96
46464;BME280;32161;48.148;-1.554;2022-12-18T04:32:10;101437.31;;;-0.75;86.48
46464;BME280;32161;48.148;-1.554;2022-12-18T04:34:38;101438.31;;;-0.76;86.32
46464;BME280;32161;48.148;-1.554;2022-12-18T04:37:05;101439.31;;;-0.77;86.85
46464;BME280;32161;48.148;-1.554;2022-12-18T04:39:33;101438.47;;;-0.67;86.70
46464;BME280;32161;48.148;-1.554;2022-12-18T04:42:01;101450.81;;;-0.66;86.37
46464;BME280;32161;48.148;-1.554;2022-12-18T04:44:29;101444.78;;;-0.68;86.44
46464;BME280;32161;48.148;-1.554;2022-12-18T04:46:57;101447.31;;;-0.67;86.42
46464;BME280;32161;48.148;-1.554;2022-12-18T04:49:26;101436.06;;;-0.70;86.66
46464;BME280;32161;48.148;-1.554;2022-12-18T04:51:53;101446.47;;;-0.67;86.80
46464;BME280;32161;48.148;-1.554;2022-12-18T04:54:21;101438.59;;;-0.59;86.73
46464;BME280;32161;48.148;-1.554;2022-12-18T04:56:49;101435.94;;;-0.50;86.17
46464;BME280;32161;48.148;-1.554;2022-12-18T04:59:16;101429.88;;;-0.52;85.73
46464;BME280;32161;48.148;-1.554;2022-12-18T05:01:44;101437.59;;;-0.58;86.02
46464;BME280;32161;48.148;-1.554;2022-12-18T05:04:12;101441.00;;;-0.56;86.26
46464;BME280;32161;48.148;-1.554;2022-12-18T05:06:41;101431.69;;;-0.62;86.78
46464;BME280;32161;48.148;-1.554;2022-12-18T05:09:09;101429.03;;;-0.52;86.70
46464;BME280;32161;48.148;-1.554;2022-12-18T05:11:36;101425.38;;;-0.51;86.80
46464;BME280;32161;48.148;-1.554;2022-12-18T05:14:04;101413.31;;;-0.55;86.62
46464;BME280;32161;48.148;-1.554;2022-12-18T05:16:32;101419.34;;;-0.53;87.25
46464;BME280;32161;48.148;-1.554;2022-12-18T05:19:00;101415.97;;;-0.55;86.94
46464;BME280;32161;48.148;-1.554;2022-12-18T05:21:27;101416.69;;;-0.53;87.49
46464;BME280;32161;48.148;-1.554;2022-12-18T05:23:57;101405.41;;;-0.47;87.31
46464;BME280;32161;48.148;-1.554;2022-12-18T05:26:24;101396.44;;;-0.46;87.20
46464;BME280;32161;48.148;-1.554;2022-12-18T05:28:52;101400.63;;;-0.43;86.71
46464;BME280;32161;48.148;-1.554;2022-12-18T05:31:19;101396.00;;;-0.41;86.56
46464;BME280;32161;48.148;-1.554;2022-12-18T05:33:47;101390.91;;;-0.35;86.89
46464;BME280;32161;48.148;-1.554;2022-12-18T05:36:15;101375.88;;;-0.36;86.49
46464;BME280;32161;48.148;-1.554;2022-12-18T05:38:44;101372.25;;;-0.44;86.84
46464;BME280;32161;48.148;-1.554;2022-12-18T05:41:13;101368.72;;;-0.26;86.77
46464;BME280;32161;48.148;-1.554;2022-12-18T05:43:41;101369.97;;;-0.30;86.52
46464;BME280;32161;48.148;-1.554;2022-12-18T05:46:12;101365.19;;;-0.26;86.56
46464;BME280;32161;48.148;-1.554;2022-12-18T05:48:40;101359.59;;;-0.33;86.64
46464;BME280;32161;48.148;-1.554;2022-12-18T05:51:10;101346.78;;;-0.29;86.78
46464;BME280;32161;48.148;-1.554;2022-12-18T05:53:39;101348.19;;;-0.35;86.92
46464;BME280;32161;48.148;-1.554;2022-12-18T05:56:08;101359.16;;;-0.28;87.20
46464;BME280;32161;48.148;-1.554;2022-12-18T05:58:38;101357.03;;;-0.25;86.95
46464;BME280;32161;48.148;-1.554;2022-12-18T06:01:11;101356.75;;;-0.21;86.44
46464;BME280;32161;48.148;-1.554;2022-12-18T06:03:39;101347.19;;;-0.24;87.22
46464;BME280;32161;48.148;-1.554;2022-12-18T06:06:14;101339.88;;;-0.32;87.42
46464;BME280;32161;48.148;-1.554;2022-12-18T06:08:42;101333.59;;;-0.31;88.06
46464;BME280;32161;48.148;-1.554;2022-12-18T06:11:10;101325.44;;;-0.39;88.33
46464;BME280;32161;48.148;-1.554;2022-12-18T06:13:39;101327.25;;;-0.30;88.49
46464;BME280;32161;48.148;-1.554;2022-12-18T06:16:07;101334.81;;;-0.25;88.31
46464;BME280;32161;48.148;-1.554;2022-12-18T06:18:35;101337.94;;;-0.30;88.32
46464;BME280;32161;48.148;-1.554;2022-12-18T06:21:03;101332.88;;;-0.33;88.50
46464;BME280;32161;48.148;-1.554;2022-12-18T06:23:30;101331.44;;;-0.27;88.91
46464;BME280;32161;48.148;-1.554;2022-12-18T06:25:58;101329.06;;;-0.30;89.11
46464;BME280;32161;48.148;-1.554;2022-12-18T06:28:26;101330.13;;;-0.13;89.45
46464;BME280;32161;48.148;-1.554;2022-12-18T06:30:55;101323.06;;;-0.05;88.51
46464;BME280;32161;48.148;-1.554;2022-12-18T06:33:25;101328.31;;;-0.13;88.77
46464;BME280;32161;48.148;-1.554;2022-12-18T06:35:53;101335.47;;;-0.13;88.98
46464;BME280;32161;48.148;-1.554;2022-12-18T06:38:20;101322.97;;;-0.13;89.69
46464;BME280;32161;48.148;-1.554;2022-12-18T06:40:48;101331.91;;;0.06;89.45
46464;BME280;32161;48.148;-1.554;2022-12-18T06:43:16;101329.56;;;0.20;89.02
46464;BME280;32161;48.148;-1.554;2022-12-18T06:45:43;101335.13;;;0.09;89.00
46464;BME280;32161;48.148;-1.554;2022-12-18T06:48:13;101321.75;;;0.09;89.42
46464;BME280;32161;48.148;-1.554;2022-12-18T06:50:42;101323.25;;;-0.16;90.58
46464;BME280;32161;48.148;-1.554;2022-12-18T06:53:10;101324.41;;;-0.18;91.06
46464;BME280;32161;48.148;-1.554;2022-12-18T06:55:37;101313.66;;;0.19;91.00
46464;BME280;32161;48.148;-1.554;2022-12-18T06:58:05;101310.06;;;0.10;90.51
46464;BME280;32161;48.148;-1.554;2022-12-18T07:00:33;101325.41;;;0.08;91.15
46464;BME280;32161;48.148;-1.554;2022-12-18T07:03:00;101327.09;;;0.09;91.53
46464;BME280;32161;48.148;-1.554;2022-12-18T07:05:30;101326.63;;;0.23;90.96
46464;BME280;32161;48.148;-1.554;2022-12-18T07:07:59;101330.34;;;0.31;90.73
46464;BME280;32161;48.148;-1.554;2022-12-18T07:10:26;101324.25;;;0.11;91.22
46464;BME280;32161;48.148;-1.554;2022-12-18T07:12:54;101331.41;;;-0.17;92.45
46464;BME280;32161;48.148;-1.554;2022-12-18T07:15:22;101340.00;;;-0.14;93.82
46464;BME280;32161;48.148;-1.554;2022-12-18T07:17:49;101332.72;;;0.06;93.35
46464;BME280;32161;48.148;-1.554;2022-12-18T07:20:17;101336.41;;;0.05;93.45
46464;BME280;32161;48.148;-1.554;2022-12-18T07:22:46;101332.19;;;0.03;93.43
46464;BME280;32161;48.148;-1.554;2022-12-18T07:25:14;101334.41;;;0.07;93.61
46464;BME280;32161;48.148;-1.554;2022-12-18T07:27:42;101338.59;;;0.19;93.51
46464;BME280;32161;48.148;-1.554;2022-12-18T07:30:11;101332.94;;;0.22;93.69
46464;BME280;32161;48.148;-1.554;2022-12-18T07:32:38;101335.66;;;0.40;93.27
46464;BME280;32161;48.148;-1.554;2022-12-18T07:35:06;101334.91;;;0.48;92.54
46464;BME280;32161;48.148;-1.554;2022-12-18T07:37:34;101326.50;;;0.43;92.59
46464;BME280;32161;48.148;-1.554;2022-12-18T07:40:04;101327.81;;;0.39;93.65
46464;BME280;32161;48.148;-1.554;2022-12-18T07:42:32;101328.38;;;0.33;93.73
46464;BME280;32161;48.148;-1.554;2022-12-18T07:45:01;101334.44;;;0.35;93.83
46464;BME280;32161;48.148;-1.554;2022-12-18T07:47:29;101328.38;;;0.33;94.25
46464;BME280;32161;48.148;-1.554;2022-12-18T07:49:57;101331.22;;;0.31;94.27
46464;BME280;32161;48.148;-1.554;2022-12-18T07:52:25;101311.34;;;0.34;94.73
46464;BME280;32161;48.148;-1.554;2022-12-18T07:54:52;101312.97;;;0.44;94.67
46464;BME280;32161;48.148;-1.554;2022-12-18T07:57:21;101308.41;;;0.55;94.08
46464;BME280;32161;48.148;-1.554;2022-12-18T07:59:49;101309.53;;;0.52;94.27
46464;BME280;32161;48.148;-1.554;2022-12-18T08:02:17;101306.13;;;0.60;94.41
46464;BME280;32161;48.148;-1.554;2022-12-18T08:04:44;101311.00;;;0.64;94.31
46464;BME280;32161;48.148;-1.554;2022-12-18T08:07:12;101300.09;;;0.76;94.58
46464;BME280;32161;48.148;-1.554;2022-12-18T08:09:40;101309.94;;;0.75;94.30
46464;BME280;32161;48.148;-1.554;2022-12-18T08:12:08;101302.38;;;0.70;94.39
46464;BME280;32161;48.148;-1.554;2022-12-18T08:14:37;101308.25;;;0.56;95.58
46464;BME280;32161;48.148;-1.554;2022-12-18T08:17:04;101310.09;;;0.56;95.49
46464;BME280;32161;48.148;-1.554;2022-12-18T08:19:32;101302.00;;;0.65;96.17
46464;BME280;32161;48.148;-1.554;2022-12-18T08:21:59;101311.16;;;0.81;95.43
46464;BME280;32161;48.148;-1.554;2022-12-18T08:24:27;101306.81;;;0.80;95.71
46464;BME280;32161;48.148;-1.554;2022-12-18T08:26:55;101314.78;;;0.89;95.91
46464;BME280;32161;48.148;-1.554;2022-12-18T08:29:23;101308.56;;;1.07;94.73
46464;BME280;32161;48.148;-1.554;2022-12-18T08:31:52;101301.28;;;0.99;95.08
46464;BME280;32161;48.148;-1.554;2022-12-18T08:34:19;101299.56;;;0.90;95.18
46464;BME280;32161;48.148;-1.554;2022-12-18T08:36:47;101306.34;;;0.84;95.74
46464;BME280;32161;48.148;-1.554;2022-12-18T08:39:15;101301.31;;;0.81;96.50
46464;BME280;32161;48.148;-1.554;2022-12-18T08:41:43;101294.34;;;0.88;96.74
46464;BME280;32161;48.148;-1.554;2022-12-18T08:44:31;101292.44;;;0.98;96.83
46464;BME280;32161;48.148;-1.554;2022-12-18T08:47:05;101290.75;;;0.97;96.77
46464;BME280;32161;48.148;-1.554;2022-12-18T08:49:34;101283.81;;;0.87;97.42
46464;BME280;32161;48.148;-1.554;2022-12-18T08:52:02;101283.88;;;0.95;97.93
46464;BME280;32161;48.148;-1.554;2022-12-18T08:54:30;101283.75;;;1.22;96.95
46464;BME280;32161;48.148;-1.554;2022-12-18T08:56:58;101294.03;;;1.09;97.17
46464;BME280;32161;48.148;-1.554;2022-12-18T08:59:25;101298.56;;;0.91;98.58
46464;BME280;32161;48.148;-1.554;2022-12-18T09:01:54;101300.22;;;0.92;99.12
46464;BME280;32161;48.148;-1.554;2022-12-18T09:04:23;101296.41;;;0.77;99.69
46464;BME280;32161;48.148;-1.554;2022-12-18T09:06:51;101297.25;;;0.95;99.59
46464;BME280;32161;48.148;-1.554;2022-12-18T09:09:21;101306.22;;;0.86;99.65
46464;BME280;32161;48.148;-1.554;2022-12-18T09:11:49;101309.63;;;0.96;99.75
46464;BME280;32161;48.148;-1.554;2022-12-18T09:14:16;101303.31;;;0.97;100.00
46464;BME280;32161;48.148;-1.554;2022-12-18T09:16:44;101299.09;;;0.94;100.00
46464;BME280;32161;48.148;-1.554;2022-12-18T09:19:12;101287.06;;;1.16;100.00
46464;BME280;32161;48.148;-1.554;2022-12-18T09:21:42;101282.91;;;1.22;99.63
46464;BME280;32161;48.148;-1.554;2022-12-18T09:24:13;101286.19;;;1.34;98.87
46464;BME280;32161;48.148;-1.554;2022-12-18T09:26:40;101290.91;;;1.40;97.84
46464;BME280;32161;48.148;-1.554;2022-12-18T09:29:08;101288.06;;;1.15;98.70
46464;BME280;32161;48.148;-1.554;2022-12-18T09:31:37;101279.88;;;1.17;98.86
46464;BME280;32161;48.148;-1.554;2022-12-18T09:34:06;101300.81;;;1.04;100.00
46464;BME280;32161;48.148;-1.554;2022-12-18T09:36:34;101312.47;;;1.12;100.00
46464;BME280;32161;48.148;-1.554;2022-12-18T09:39:03;101318.41;;;1.24;99.94
46464;BME280;32161;48.148;-1.554;2022-12-18T09:41:46;101325.09;;;1.46;99.06
46464;BME280;32161;48.148;-1.554;2022-12-18T09:44:25;101316.94;;;1.30;99.03
46464;BME280;32161;48.148;-1.554;2022-12-18T09:47:02;101315.97;;;1.31;99.82
46464;BME280;32161;48.148;-1.554;2022-12-18T09:49:37;101319.69;;;1.38;99.48
46464;BME280;32161;48.148;-1.554;2022-12-18T09:52:14;101317.69;;;1.40;98.93
46464;BME280;32161;48.148;-1.554;2022-12-18T09:54:46;101316.44;;;1.52;99.25
46464;BME280;32161;48.148;-1.554;2022-12-18T09:57:20;101311.03;;;1.44;98.77
46464;BME280;32161;48.148;-1.554;2022-12-18T09:59:54;101299.31;;;1.45;99.51
46464;BME280;32161;48.148;-1.554;2022-12-18T10:02:25;101303.84;;;1.27;99.13
46464;BME280;32161;48.148;-1.554;2022-12-18T10:05:06;101303.31;;;1.41;100.00
46464;BME280;32161;48.148;-1.554;2022-12-18T10:07:59;101289.78;;;1.42;99.94
46464;BME280;32161;48.148;-1.554;2022-12-18T10:10:38;101293.81;;;1.46;99.61
46464;BME280;32161;48.148;-1.554;2022-12-18T10:13:16;101285.38;;;1.41;99.90
46464;BME280;32161;48.148;-1.554;2022-12-18T10:15:59;101285.44;;;1.50;99.63
46464;BME280;32161;48.148;-1.554;2022-12-18T10:18:43;101279.81;;;1.61;99.76
46464;BME280;32161;48.148;-1.554;2022-12-18T10:21:20;101269.72;;;1.46;99.20
46464;BME280;32161;48.148;-1.554;2022-12-18T10:23:57;101260.19;;;1.52;99.25
46464;BME280;32161;48.148;-1.554;2022-12-18T10:26:32;101264.00;;;1.50;100.00
46464;BME280;32161;48.148;-1.554;2022-12-18T10:29:00;101250.69;;;1.58;100.00
46464;BME280;32161;48.148;-1.554;2022-12-18T10:31:28;101242.78;;;1.56;100.00
46464;BME280;32161;48.148;-1.554;2022-12-18T10:33:56;101254.00;;;1.52;100.00
46464;BME280;32161;48.148;-1.554;2022-12-18T10:36:24;101246.25;;;1.49;100.00
46464;BME280;32161;48.148;-1.554;2022-12-18T10:38:51;101239.09;;;1.57;100.00
46464;BME280;32161;48.148;-1.554;2022-12-18T10:41:26;101248.41;;;1.45;100.00
46464;BME280;32161;48.148;-1.554;2022-12-18T10:44:17;101248.88;;;1.66;100.00
46464;BME280;32161;48.148;-1.554;2022-12-18T10:46:46;101246.22;;;1.66;100.00
46464;BME280;32161;48.148;-1.554;2022-12-18T10:49:24;101228.28;;;1.67;100.00
46464;BME280;32161;48.148;-1.554;2022-12-18T10:52:13;101232.06;;;1.56;100.00
46464;BME280;32161;48.148;-1.554;2022-12-18T10:54:49;101231.53;;;1.87;100.00
46464;BME280;32161;48.148;-1.554;2022-12-18T10:57:29;101232.22;;;1.81;100.00
46464;BME280;32161;48.148;-1.554;2022-12-18T11:00:18;101230.16;;;1.75;100.00
46464;BME280;32161;48.148;-1.554;2022-12-18T11:02:47;101234.22;;;1.87;100.00
46464;BME280;32161;48.148;-1.554;2022-12-18T11:05:28;101228.66;;;1.80;100.00
46464;BME280;32161;48.148;-1.554;2022-12-18T11:07:57;101226.34;;;1.77;100.00
46464;BME280;32161;48.148;-1.554;2022-12-18T11:10:30;101226.16;;;1.79;100.00
46464;BME280;32161;48.148;-1.554;2022-12-18T11:13:11;101221.28;;;1.74;100.00
46464;BME280;32161;48.148;-1.554;2022-12-18T11:15:41;101208.13;;;1.97;100.00
46464;BME280;32161;48.148;-1.554;2022-12-18T11:18:19;101205.09;;;1.92;100.00
46464;BME280;32161;48.148;-1.554;2022-12-18T11:20:53;101207.03;;;1.65;100.00
46464;BME280;32161;48.148;-1.554;2022-12-18T11:23:22;101198.00;;;1.75;100.00
46464;BME280;32161;48.148;-1.554;2022-12-18T11:25:59;101208.31;;;1.61;100.00
46464;BME280;32161;48.148;-1.554;2022-12-18T11:28:37;101199.47;;;1.69;100.00
46464;BME280;32161;48.148;-1.554;2022-12-18T11:31:23;101192.69;;;1.91;100.00
46464;BME280;32161;48.148;-1.554;2022-12-18T11:34:00;101182.47;;;1.94;100.00
46464;BME280;32161;48.148;-1.554;2022-12-18T11:36:33;101173.44;;;1.95;100.00
46464;BME280;32161;48.148;-1.554;2022-12-18T11:39:03;101181.34;;;1.97;100.00
46464;BME280;32161;48.148;-1.554;2022-12-18T11:41:38;101180.63;;;1.87;100.00
46464;BME280;32161;48.148;-1.554;2022-12-18T11:44:29;101177.22;;;1.77;100.00
46464;BME280;32161;48.148;-1.554;2022-12-18T11:47:09;101164.91;;;2.00;100.00
46464;BME280;32161;48.148;-1.554;2022-12-18T11:49:42;101161.91;;;2.11;100.00
46464;BME280;32161;48.148;-1.554;2022-12-18T11:52:16;101163.25;;;2.07;100.00
46464;BME280;32161;48.148;-1.554;2022-12-18T11:54:45;101144.66;;;2.06;100.00
46464;BME280;32161;48.148;-1.554;2022-12-18T11:57:25;101147.84;;;2.09;100.00
46464;BME280;32161;48.148;-1.554;2022-12-18T12:00:03;101142.16;;;2.20;100.00
46464;BME280;32161;48.148;-1.554;2022-12-18T12:02:52;101140.66;;;2.34;100.00
46464;BME280;32161;48.148;-1.554;2022-12-18T12:05:43;101127.91;;;2.28;100.00
46464;BME280;32161;48.148;-1.554;2022-12-18T12:08:18;101118.34;;;2.17;100.00
46464;BME280;32161;48.148;-1.554;2022-12-18T12:10:59;101100.59;;;2.33;100.00
46464;BME280;32161;48.148;-1.554;2022-12-18T12:13:43;101106.28;;;2.22;100.00
46464;BME280;32161;48.148;-1.554;2022-12-18T12:16:20;101102.63;;;2.31;100.00
46464;BME280;32161;48.148;-1.554;2022-12-18T12:19:06;101107.94;;;2.06;100.00
46464;BME280;32161;48.148;-1.554;2022-12-18T12:21:41;101100.25;;;2.36;100.00
46464;BME280;32161;48.148;-1.554;2022-12-18T12:24:28;101100.59;;;2.41;100.00
46464;BME280;32161;48.148;-1.554;2022-12-18T12:27:08;101125.75;;;2.24;100.00
46464;BME280;32161;48.148;-1.554;2022-12-18T12:29:54;101105.63;;;2.19;100.00
46464;BME280;32161;48.148;-1.554;2022-12-18T12:32:49;101107.97;;;2.31;100.00
46464;BME280;32161;48.148;-1.554;2022-12-18T12:35:35;101108.97;;;2.38;100.00
46464;BME280;32161;48.148;-1.554;2022-12-18T12:38:10;101110.63;;;2.06;100.00
46464;BME280;32161;48.148;-1.554;2022-12-18T12:40:44;101103.28;;;2.25;100.00
46464;BME280;32161;48.148;-1.554;2022-12-18T12:43:26;101081.78;;;2.57;100.00
46464;BME280;32161;48.148;-1.554;2022-12-18T12:45:56;101081.47;;;2.36;100.00
46464;BME280;32161;48.148;-1.554;2022-12-18T12:48:37;101083.63;;;2.57;100.00
46464;BME280;32161;48.148;-1.554;2022-12-18T12:51:16;101086.16;;;2.66;100.00
46464;BME280;32161;48.148;-1.554;2022-12-18T12:53:45;101092.19;;;2.60;100.00
46464;BME280;32161;48.148;-1.554;2022-12-18T12:56:15;101086.81;;;2.60;100.00
46464;BME280;32161;48.148;-1.554;2022-12-18T12:58:57;101070.38;;;2.63;100.00
46464;BME280;32161;48.148;-1.554;2022-12-18T13:01:34;101079.59;;;2.69;100.00
46464;BME280;32161;48.148;-1.554;2022-12-18T13:04:15;101066.78;;;2.87;100.00
46464;BME280;32161;48.148;-1.554;2022-12-18T13:06:57;101061.56;;;3.02;100.00